-12°C Temp
-14°C Dewpoint
85% Humidity
Temperature
2 KM/H
1 MPH
1 KTS
70°
East North
East

Wind Speed
Mostly Scattered
Clouds
Pressure 1000.92 (hPa) - 29.56 (in)
Visibility 6.2 (mi) - 10.0 (km)

Current Conditions
EFOU
Location 85(km)
Metar :EFOU 262250Z AUTO 07001KT 9999 SCT010 M12/M14 Q1001
Sat 27th November 00:50 am

Airport
  Metar Aviation API Data Provided by https://www.checkwx.com/ PHP scripts by weather34.com ©2021